Time;durP1;ratioP1;P1;durP2;ratioP2;P2;SDS_P1;SDS_P2;PMS_P1;PMS_P2;Temp;Humidity;BMP_temperature;BMP_pressure;BME280_temperature;BME280_humidity;BME280_pressure;Samples;Min_cycle;Max_cycle;Signal;HPM_P1;HPM_P2
2021/09/14 00:14:54;;;;;;;10.23;5.70;;;;;;;16.45;100.00;100665.95;714578;1200;114478;-72
2021/09/14 00:29:56;;;;;;;12.95;6.48;;;;;;;16.41;100.00;100668.09;714541;1200;114476;-72
2021/09/14 00:44:59;;;;;;;6.63;4.43;;;;;;;16.29;100.00;100656.18;714813;1200;114226;-72
2021/09/14 01:00:03;;;;;;;11.07;6.33;;;;;;;15.72;100.00;100656.85;714365;1199;115449;-71
2021/09/14 01:15:08;;;;;;;22.15;6.78;;;;;;;15.72;100.00;100660.31;714425;1186;115676;-71
2021/09/14 01:30:21;;;;;;;11.77;7.10;;;;;;;15.76;100.00;100661.64;714463;1199;114581;-71
2021/09/14 01:45:23;;;;;;;21.00;5.78;;;;;;;15.79;100.00;100671.89;714768;1202;116068;-71
2021/09/14 02:00:33;;;;;;;9.20;5.00;;;;;;;15.65;100.00;100680.43;715254;1200;114439;-71
2021/09/14 03:01:47;;;;;;;6.45;4.38;;;;;;;15.45;100.00;100695.71;714780;1203;115654;-73
2021/09/14 03:16:49;;;;;;;7.88;4.15;;;;;;;15.57;100.00;100690.98;714222;1184;114125;-71
2021/09/14 03:31:52;;;;;;;7.90;4.20;;;;;;;15.60;100.00;100688.04;714416;1200;115886;-71
2021/09/14 03:46:54;;;;;;;5.98;4.05;;;;;;;15.40;100.00;100680.34;714251;1199;115721;-72
2021/09/14 04:01:59;;;;;;;7.10;4.20;;;;;;;15.69;100.00;100687.09;714258;1203;115904;-71
2021/09/14 04:17:02;;;;;;;11.97;5.17;;;;;;;15.67;100.00;100696.98;714207;1202;115674;-72
2021/09/14 04:32:04;;;;;;;11.20;5.83;;;;;;;15.63;100.00;100701.75;713935;1199;116086;-73
2021/09/14 04:47:06;;;;;;;14.93;8.53;;;;;;;15.50;100.00;100711.11;714181;1200;114890;-73
2021/09/14 05:02:08;;;;;;;11.53;6.40;;;;;;;15.37;100.00;100720.28;714051;1199;114855;-71
2021/09/14 05:17:10;;;;;;;11.85;6.10;;;;;;;15.24;100.00;100733.94;714165;1200;114803;-71
2021/09/14 05:32:17;;;;;;;21.05;9.85;;;;;;;15.38;100.00;100734.34;714172;1202;114745;-72
2021/09/14 05:47:19;;;;;;;10.50;6.60;;;;;;;15.55;100.00;100737.92;714253;1199;114276;-72
2021/09/14 06:02:21;;;;;;;14.20;6.48;;;;;;;15.88;100.00;100744.22;714210;1199;115006;-72
2021/09/14 06:17:24;;;;;;;9.63;5.90;;;;;;;16.29;100.00;100738.23;714351;1202;114271;-72
2021/09/14 06:32:27;;;;;;;12.28;5.53;;;;;;;16.24;100.00;100744.00;714939;1200;114264;-72
2021/09/14 06:47:30;;;;;;;15.83;7.13;;;;;;;16.55;100.00;100761.11;716915;1188;114248;-72
2021/09/14 07:02:32;;;;;;;12.50;5.88;;;;;;;16.84;100.00;100749.23;714695;1200;114451;-71
2021/09/14 07:17:38;;;;;;;10.27;5.43;;;;;;;17.15;100.00;100764.52;714541;1202;114436;-74
2021/09/14 07:32:40;;;;;;;8.35;4.80;;;;;;;17.29;100.00;100766.49;714327;1200;115835;-74
2021/09/14 07:47:43;;;;;;;9.50;4.83;;;;;;;17.27;100.00;100777.23;714547;1199;115403;-73
2021/09/14 08:02:59;;;;;;;8.50;4.68;;;;;;;17.91;100.00;100778.29;714448;1200;115834;-72
2021/09/14 08:18:01;;;;;;;8.93;3.93;;;;;;;17.87;100.00;100791.06;714504;1200;115011;-71
2021/09/14 08:33:04;;;;;;;5.05;3.08;;;;;;;18.17;100.00;100796.59;714778;1202;114528;-72
2021/09/14 08:48:09;;;;;;;4.78;2.83;;;;;;;19.25;100.00;100794.11;714524;1199;114278;-72
2021/09/14 09:03:11;;;;;;;5.60;2.33;;;;;;;20.32;100.00;100802.78;714417;1199;115407;-73
2021/09/14 09:18:15;;;;;;;3.30;2.60;;;;;;;19.05;99.97;100810.55;714401;1199;114662;-74
2021/09/14 09:33:25;;;;;;;3.80;2.30;;;;;;;18.35;100.00;100811.48;714576;1199;115139;-72
2021/09/14 09:48:28;;;;;;;3.13;1.20;;;;;;;18.85;100.00;100806.70;714689;1200;115687;-73
2021/09/14 10:03:35;;;;;;;3.13;1.85;;;;;;;19.05;97.85;100818.53;714502;1199;115537;-69
2021/09/14 10:18:38;;;;;;;2.73;1.48;;;;;;;19.58;94.87;100804.44;714430;1200;114458;-69
2021/09/14 10:33:41;;;;;;;3.37;1.77;;;;;;;19.26;92.72;100804.56;714547;1200;115630;-69
2021/09/14 10:48:48;;;;;;;2.83;1.85;;;;;;;19.58;92.89;100804.44;714381;1203;114493;-73
2021/09/14 11:04:07;;;;;;;5.35;2.50;;;;;;;19.27;92.21;100808.88;714484;1199;113863;-74
2021/09/14 11:19:09;;;;;;;4.13;1.88;;;;;;;19.95;93.71;100806.23;714900;1202;114782;-70
2021/09/14 11:34:12;;;;;;;4.05;2.08;;;;;;;19.27;92.90;100802.74;714695;1202;114253;-72
2021/09/14 11:49:14;;;;;;;4.13;2.70;;;;;;;18.94;94.26;100808.33;714697;1199;115389;-73
2021/09/14 12:04:18;;;;;;;5.93;2.10;;;;;;;18.75;95.80;100812.23;714178;1203;114207;-70
2021/09/14 12:19:26;;;;;;;3.80;1.77;;;;;;;18.69;96.96;100803.14;714375;1202;114452;-70
2021/09/14 12:34:30;;;;;;;4.05;2.23;;;;;;;18.46;97.07;100806.61;714347;1178;114187;-69
2021/09/14 12:49:32;;;;;;;6.93;3.95;;;;;;;18.20;98.50;100808.70;714410;1199;114759;-71
2021/09/14 13:04:34;;;;;;;5.53;3.68;;;;;;;18.15;99.68;100803.11;714414;1200;114820;-70
2021/09/14 13:19:37;;;;;;;6.50;3.48;;;;;;;18.22;100.00;100801.41;714640;1200;114429;-70
2021/09/14 13:34:39;;;;;;;4.98;2.85;;;;;;;18.19;99.93;100801.77;714747;1200;115359;-69
2021/09/14 13:49:41;;;;;;;6.33;3.90;;;;;;;18.26;100.00;100805.37;715246;1200;114853;-72
2021/09/14 14:04:43;;;;;;;10.97;5.80;;;;;;;18.14;99.94;100791.65;714617;1200;114641;-73
2021/09/14 14:19:46;;;;;;;11.05;6.18;;;;;;;18.20;100.00;100790.13;714713;1199;115421;-72
2021/09/14 14:34:49;;;;;;;6.58;3.80;;;;;;;18.09;100.00;100789.53;714724;1199;115159;-70
2021/09/14 14:49:51;;;;;;;4.03;2.80;;;;;;;18.04;100.00;100775.94;714739;1199;115452;-70
2021/09/14 15:04:54;;;;;;;26.85;16.58;;;;;;;18.03;100.00;100771.63;714556;1200;115500;-73
2021/09/14 15:19:57;;;;;;;14.30;10.17;;;;;;;18.11;100.00;100776.08;715198;1177;114821;-69
2021/09/14 15:34:59;;;;;;;101.33;52.18;;;;;;;18.10;100.00;100777.88;714729;1200;115459;-73
2021/09/14 15:50:03;;;;;;;42.88;23.78;;;;;;;18.07;100.00;100785.39;714911;1201;116433;-73
2021/09/14 16:05:06;;;;;;;42.97;23.80;;;;;;;17.84;100.00;100780.77;714583;1200;114950;-73
2021/09/14 16:20:09;;;;;;;28.58;15.95;;;;;;;17.76;100.00;100768.38;714956;1202;115011;-74
2021/09/14 16:35:13;;;;;;;9.90;6.73;;;;;;;17.64;100.00;100761.77;714302;1199;116170;-70
2021/09/14 16:50:17;;;;;;;169.67;56.10;;;;;;;17.31;100.00;100767.14;714610;1177;114539;-71
2021/09/14 17:05:19;;;;;;;17.80;10.90;;;;;;;16.83;100.00;100774.91;714345;1200;116045;-71
2021/09/14 17:20:21;;;;;;;24.63;15.83;;;;;;;16.01;100.00;100770.23;714619;1200;115530;-70
2021/09/14 17:35:25;;;;;;;27.47;17.23;;;;;;;15.42;100.00;100764.77;714459;1174;114864;-69
2021/09/14 17:50:28;;;;;;;28.93;16.27;;;;;;;15.23;100.00;100769.27;714883;1178;114654;-70
2021/09/14 18:05:32;;;;;;;25.25;17.23;;;;;;;15.11;100.00;100773.12;715346;1176;115513;-70
2021/09/14 18:20:34;;;;;;;28.28;16.93;;;;;;;14.76;100.00;100795.94;715272;1177;114631;-73
2021/09/14 18:35:37;;;;;;;41.30;23.90;;;;;;;14.34;100.00;100778.80;714993;1175;114719;-68
2021/09/14 18:50:41;;;;;;;114.55;51.03;;;;;;;14.24;100.00;100791.20;716653;1176;115543;-70
2021/09/14 19:05:46;;;;;;;26.30;14.78;;;;;;;14.00;100.00;100789.92;730015;1175;114615;-69
2021/09/14 19:20:49;;;;;;;20.20;12.95;;;;;;;13.89;100.00;100776.94;715819;1199;115356;-69
2021/09/14 19:35:51;;;;;;;16.88;10.20;;;;;;;13.51;100.00;100781.36;715124;1199;116020;-70
2021/09/14 19:50:54;;;;;;;22.58;10.43;;;;;;;13.44;100.00;100767.92;715868;1200;115048;-67
2021/09/14 20:05:56;;;;;;;23.45;11.85;;;;;;;13.34;100.00;100777.61;716195;1199;115674;-70
2021/09/14 20:21:02;;;;;;;17.75;9.30;;;;;;;13.07;100.00;100793.16;717326;1177;116281;-71
2021/09/14 20:36:14;;;;;;;20.48;10.55;;;;;;;12.92;100.00;100784.00;716641;1199;116478;-70
2021/09/14 20:51:17;;;;;;;17.80;9.05;;;;;;;12.68;100.00;100787.86;715419;1174;114444;-70
2021/09/14 21:06:19;;;;;;;19.33;9.03;;;;;;;12.55;100.00;100800.45;715197;1199;115714;-70
2021/09/14 21:21:22;;;;;;;17.43;9.07;;;;;;;12.54;100.00;100797.00;714427;1200;115213;-70
2021/09/14 21:36:24;;;;;;;32.88;15.33;;;;;;;12.51;100.00;100801.70;714455;1199;114937;-70
2021/09/14 21:51:26;;;;;;;18.93;10.23;;;;;;;12.36;100.00;100796.81;714853;1200;114895;-69
2021/09/14 22:06:28;;;;;;;13.88;7.68;;;;;;;11.98;100.00;100786.04;717069;1200;114921;-71
2021/09/14 22:21:31;;;;;;;30.20;13.85;;;;;;;11.73;100.00;100784.66;714974;1176;114929;-73
2021/09/14 22:36:33;;;;;;;21.07;12.40;;;;;;;11.51;100.00;100784.78;714884;1201;114627;-72
2021/09/14 22:51:35;;;;;;;20.17;11.60;;;;;;;11.45;100.00;100789.58;714680;1200;115036;-72
2021/09/14 23:06:38;;;;;;;24.40;15.28;;;;;;;11.50;100.00;100804.98;713966;1199;115215;-72
2021/09/14 23:21:41;;;;;;;29.38;14.65;;;;;;;11.37;100.00;100813.04;714322;1202;115747;-73
2021/09/14 23:36:43;;;;;;;21.68;12.68;;;;;;;11.31;100.00;100801.26;714589;1203;115237;-71
2021/09/14 23:51:45;;;;;;;22.33;12.57;;;;;;;11.23;100.00;100800.22;713936;1199;116273;-72
